sensor_id;sensor_type;location;lat;lon;timestamp;pressure;altitude;pressure_sealevel;temperature;humidity
63654;BME280;49809;47.418;19.080;2023-07-28T00:03:41;100144.72;;;15.79;81.57
63654;BME280;49809;47.418;19.080;2023-07-28T00:11:10;100141.78;;;15.80;82.31
63654;BME280;49809;47.418;19.080;2023-07-28T00:14:50;100142.37;;;15.77;82.17
63654;BME280;49809;47.418;19.080;2023-07-28T00:33:40;100129.22;;;15.99;82.77
63654;BME280;49809;47.418;19.080;2023-07-28T00:37:10;100131.97;;;15.94;82.46
63654;BME280;49809;47.418;19.080;2023-07-28T00:40:47;100135.72;;;15.93;83.09
63654;BME280;49809;47.418;19.080;2023-07-28T00:48:07;100128.41;;;15.99;82.51
63654;BME280;49809;47.418;19.080;2023-07-28T00:51:54;100131.97;;;15.94;82.43
63654;BME280;49809;47.418;19.080;2023-07-28T00:55:30;100131.87;;;15.99;82.39
63654;BME280;49809;47.418;19.080;2023-07-28T01:10:20;100124.78;;;16.08;81.36
63654;BME280;49809;47.418;19.080;2023-07-28T01:14:13;100122.63;;;16.11;81.37
63654;BME280;49809;47.418;19.080;2023-07-28T01:29:15;100119.13;;;16.29;80.61
63654;BME280;49809;47.418;19.080;2023-07-28T01:32:54;100123.00;;;16.36;80.18
63654;BME280;49809;47.418;19.080;2023-07-28T01:39:59;100117.56;;;16.41;80.15
63654;BME280;49809;47.418;19.080;2023-07-28T01:54:34;100112.50;;;16.59;79.89
63654;BME280;49809;47.418;19.080;2023-07-28T01:58:34;100110.06;;;16.57;79.98
63654;BME280;49809;47.418;19.080;2023-07-28T02:06:02;100113.81;;;16.56;80.56
63654;BME280;49809;47.418;19.080;2023-07-28T02:09:35;100109.53;;;16.60;80.20
63654;BME280;49809;47.418;19.080;2023-07-28T02:17:04;100108.41;;;16.61;79.93
63654;BME280;49809;47.418;19.080;2023-07-28T02:27:51;100119.53;;;16.68;78.95
63654;BME280;49809;47.418;19.080;2023-07-28T02:35:11;100117.94;;;16.67;79.30
63654;BME280;49809;47.418;19.080;2023-07-28T02:46:53;100111.53;;;16.36;80.86
63654;BME280;49809;47.418;19.080;2023-07-28T02:50:30;100105.66;;;16.20;81.53
63654;BME280;49809;47.418;19.080;2023-07-28T02:54:03;100095.84;;;16.16;82.22
63654;BME280;49809;47.418;19.080;2023-07-28T03:01:21;100093.75;;;16.13;82.33
63654;BME280;49809;47.418;19.080;2023-07-28T03:04:28;100097.38;;;16.03;82.62
63654;BME280;49809;47.418;19.080;2023-07-28T03:08:04;100099.84;;;15.99;83.17
63654;BME280;49809;47.418;19.080;2023-07-28T03:18:54;100116.44;;;15.96;83.94
63654;BME280;49809;47.418;19.080;2023-07-28T03:34:05;100093.91;;;16.02;84.09
63654;BME280;49809;47.418;19.080;2023-07-28T03:41:26;100093.91;;;16.02;84.67
63654;BME280;49809;47.418;19.080;2023-07-28T03:45:15;100090.16;;;16.03;84.71
63654;BME280;49809;47.418;19.080;2023-07-28T03:49:23;100091.44;;;15.92;85.21
63654;BME280;49809;47.418;19.080;2023-07-28T03:57:10;100091.66;;;15.77;86.67
63654;BME280;49809;47.418;19.080;2023-07-28T04:00:55;100087.47;;;15.71;87.46
63654;BME280;49809;47.418;19.080;2023-07-28T04:05:00;100084.28;;;15.69;87.57
63654;BME280;49809;47.418;19.080;2023-07-28T04:08:47;100087.84;;;15.64;87.67
63654;BME280;49809;47.418;19.080;2023-07-28T04:30:26;100103.31;;;16.46;84.22
63654;BME280;49809;47.418;19.080;2023-07-28T04:45:24;100116.66;;;17.06;83.03
63654;BME280;49809;47.418;19.080;2023-07-28T04:56:22;100090.59;;;17.74;80.06
63654;BME280;49809;47.418;19.080;2023-07-28T04:59:57;100076.66;;;17.86;80.18
63654;BME280;49809;47.418;19.080;2023-07-28T05:03:41;100068.31;;;17.88;79.17
63654;BME280;49809;47.418;19.080;2023-07-28T05:07:19;100077.72;;;18.07;78.10
63654;BME280;49809;47.418;19.080;2023-07-28T05:14:34;100073.41;;;18.20;77.83
63654;BME280;49809;47.418;19.080;2023-07-28T05:21:49;100080.44;;;18.38;76.72
63654;BME280;49809;47.418;19.080;2023-07-28T05:25:24;100077.09;;;18.33;76.77
63654;BME280;49809;47.418;19.080;2023-07-28T05:32:44;100079.44;;;18.56;75.48
63654;BME280;49809;47.418;19.080;2023-07-28T05:36:21;100070.41;;;18.92;74.54
63654;BME280;49809;47.418;19.080;2023-07-28T05:51:22;100083.16;;;19.69;71.89
63654;BME280;49809;47.418;19.080;2023-07-28T05:54:57;100095.19;;;19.80;71.89
63654;BME280;49809;47.418;19.080;2023-07-28T05:58:35;100100.19;;;19.90;71.40
63654;BME280;49809;47.418;19.080;2023-07-28T06:02:12;100102.56;;;20.00;71.37
63654;BME280;49809;47.418;19.080;2023-07-28T06:05:51;100124.06;;;19.57;70.98
63654;BME280;49809;47.418;19.080;2023-07-28T06:13:15;100112.53;;;20.08;69.19
63654;BME280;49809;47.418;19.080;2023-07-28T06:16:55;100116.22;;;20.59;67.11
63654;BME280;49809;47.418;19.080;2023-07-28T06:20:16;100116.38;;;20.54;66.42
63654;BME280;49809;47.418;19.080;2023-07-28T06:23:57;100123.59;;;21.08;64.98
63654;BME280;49809;47.418;19.080;2023-07-28T06:27:37;100116.19;;;21.55;63.19
63654;BME280;49809;47.418;19.080;2023-07-28T06:34:34;100103.06;;;21.33;60.46
63654;BME280;49809;47.418;19.080;2023-07-28T06:38:16;100091.22;;;22.21;58.15
63654;BME280;49809;47.418;19.080;2023-07-28T06:41:35;100091.97;;;22.54;56.46
63654;BME280;49809;47.418;19.080;2023-07-28T06:45:14;100104.59;;;22.86;56.20
63654;BME280;49809;47.418;19.080;2023-07-28T06:48:50;100116.19;;;22.42;56.97
63654;BME280;49809;47.418;19.080;2023-07-28T06:52:19;100115.69;;;22.61;56.19
63654;BME280;49809;47.418;19.080;2023-07-28T06:55:49;100109.41;;;22.69;53.37
63654;BME280;49809;47.418;19.080;2023-07-28T06:59:26;100096.19;;;23.40;53.36
63654;BME280;49809;47.418;19.080;2023-07-28T07:03:06;100095.88;;;23.29;53.13
63654;BME280;49809;47.418;19.080;2023-07-28T07:06:58;100088.37;;;23.11;53.28
63654;BME280;49809;47.418;19.080;2023-07-28T07:14:11;100074.81;;;24.03;51.81
63654;BME280;49809;47.418;19.080;2023-07-28T07:17:45;100077.59;;;22.99;53.01
63654;BME280;49809;47.418;19.080;2023-07-28T07:25:07;100071.63;;;23.17;52.56
63654;BME280;49809;47.418;19.080;2023-07-28T07:29:16;100076.47;;;22.87;52.47
63654;BME280;49809;47.418;19.080;2023-07-28T07:36:31;100071.22;;;24.74;49.66
63654;BME280;49809;47.418;19.080;2023-07-28T07:40:07;100071.50;;;24.53;50.66
63654;BME280;49809;47.418;19.080;2023-07-28T07:43:57;100074.87;;;24.97;49.68
63654;BME280;49809;47.418;19.080;2023-07-28T07:55:00;100052.75;;;24.44;47.10
63654;BME280;49809;47.418;19.080;2023-07-28T08:02:56;100064.13;;;25.74;46.11
63654;BME280;49809;47.418;19.080;2023-07-28T08:14:51;100054.34;;;25.50;45.14
63654;BME280;49809;47.418;19.080;2023-07-28T08:22:25;100047.66;;;26.05;43.86
63654;BME280;49809;47.418;19.080;2023-07-28T08:33:35;100041.91;;;26.78;42.57
63654;BME280;49809;47.418;19.080;2023-07-28T08:37:16;100039.16;;;27.61;40.78
63654;BME280;49809;47.418;19.080;2023-07-28T08:41:01;100048.09;;;27.32;41.33
63654;BME280;49809;47.418;19.080;2023-07-28T08:52:29;100033.56;;;28.21;37.83
63654;BME280;49809;47.418;19.080;2023-07-28T09:00:18;100030.22;;;29.97;35.04
63654;BME280;49809;47.418;19.080;2023-07-28T09:03:54;100020.53;;;30.52;34.34
63654;BME280;49809;47.418;19.080;2023-07-28T09:07:19;100018.03;;;29.55;35.24
63654;BME280;49809;47.418;19.080;2023-07-28T09:10:53;100021.56;;;29.63;35.19
63654;BME280;49809;47.418;19.080;2023-07-28T09:14:45;100009.16;;;30.82;33.80
63654;BME280;49809;47.418;19.080;2023-07-28T09:18:33;100020.91;;;30.30;33.69
63654;BME280;49809;47.418;19.080;2023-07-28T09:26:01;100007.63;;;30.21;35.58
63654;BME280;49809;47.418;19.080;2023-07-28T09:29:48;100000.13;;;30.96;33.60
63654;BME280;49809;47.418;19.080;2023-07-28T09:37:27;99995.19;;;31.57;33.79
63654;BME280;49809;47.418;19.080;2023-07-28T09:41:10;99997.00;;;31.04;34.50
63654;BME280;49809;47.418;19.080;2023-07-28T09:48:59;99992.31;;;31.05;34.51
63654;BME280;49809;47.418;19.080;2023-07-28T09:56:27;99987.91;;;31.29;36.04
63654;BME280;49809;47.418;19.080;2023-07-28T10:00:45;99984.91;;;31.02;34.73
63654;BME280;49809;47.418;19.080;2023-07-28T10:13:14;99979.81;;;31.80;33.68
63654;BME280;49809;47.418;19.080;2023-07-28T10:36:33;99978.25;;;30.96;35.42
63654;BME280;49809;47.418;19.080;2023-07-28T10:40:34;99983.63;;;32.42;33.93
63654;BME280;49809;47.418;19.080;2023-07-28T10:44:20;99974.81;;;32.61;33.89
63654;BME280;49809;47.418;19.080;2023-07-28T10:48:02;99984.50;;;32.31;34.97
63654;BME280;49809;47.418;19.080;2023-07-28T10:51:40;99976.28;;;33.37;31.78
63654;BME280;49809;47.418;19.080;2023-07-28T10:55:20;99991.50;;;32.36;34.01
63654;BME280;49809;47.418;19.080;2023-07-28T11:02:43;99988.94;;;32.97;32.74
63654;BME280;49809;47.418;19.080;2023-07-28T11:06:48;99979.69;;;33.17;32.88
63654;BME280;49809;47.418;19.080;2023-07-28T11:10:28;99961.09;;;31.75;35.06
63654;BME280;49809;47.418;19.080;2023-07-28T11:14:14;99970.78;;;33.40;34.66
63654;BME280;49809;47.418;19.080;2023-07-28T11:17:39;99973.25;;;33.85;33.73
63654;BME280;49809;47.418;19.080;2023-07-28T11:21:26;99961.81;;;33.06;33.99
63654;BME280;49809;47.418;19.080;2023-07-28T11:24:59;99973.03;;;32.44;34.20
63654;BME280;49809;47.418;19.080;2023-07-28T11:32:17;99974.59;;;33.46;33.41
63654;BME280;49809;47.418;19.080;2023-07-28T11:35:56;99955.06;;;32.43;35.27
63654;BME280;49809;47.418;19.080;2023-07-28T11:39:28;99963.28;;;33.44;32.45
63654;BME280;49809;47.418;19.080;2023-07-28T11:43:04;99960.84;;;33.77;32.85
63654;BME280;49809;47.418;19.080;2023-07-28T11:50:37;99947.84;;;33.54;32.67
63654;BME280;49809;47.418;19.080;2023-07-28T11:57:34;99945.81;;;32.67;32.58
63654;BME280;49809;47.418;19.080;2023-07-28T12:01:09;99932.13;;;32.67;33.39
63654;BME280;49809;47.418;19.080;2023-07-28T12:05:15;99930.44;;;31.32;36.07
63654;BME280;49809;47.418;19.080;2023-07-28T12:09:27;99935.31;;;33.53;32.46
63654;BME280;49809;47.418;19.080;2023-07-28T12:24:00;99918.25;;;33.92;32.33
63654;BME280;49809;47.418;19.080;2023-07-28T12:27:41;99920.41;;;34.86;31.76
63654;BME280;49809;47.418;19.080;2023-07-28T12:31:18;99932.94;;;33.55;32.77
63654;BME280;49809;47.418;19.080;2023-07-28T12:35:07;99923.31;;;33.67;33.21
63654;BME280;49809;47.418;19.080;2023-07-28T12:38:48;99912.88;;;34.51;31.43
63654;BME280;49809;47.418;19.080;2023-07-28T12:42:31;99908.78;;;32.11;34.40
63654;BME280;49809;47.418;19.080;2023-07-28T12:49:51;99908.50;;;31.98;34.78
63654;BME280;49809;47.418;19.080;2023-07-28T12:53:33;99914.75;;;31.99;34.75
63654;BME280;49809;47.418;19.080;2023-07-28T12:57:10;99905.25;;;32.14;34.18
63654;BME280;49809;47.418;19.080;2023-07-28T13:00:41;99923.31;;;31.56;34.38
63654;BME280;49809;47.418;19.080;2023-07-28T13:04:33;99913.19;;;31.46;35.37
63654;BME280;49809;47.418;19.080;2023-07-28T13:08:09;99916.16;;;31.00;35.89
63654;BME280;49809;47.418;19.080;2023-07-28T13:12:00;99913.28;;;31.32;36.07
63654;BME280;49809;47.418;19.080;2023-07-28T13:15:37;99918.91;;;31.07;36.54
63654;BME280;49809;47.418;19.080;2023-07-28T13:19:27;99901.87;;;30.57;36.45
63654;BME280;49809;47.418;19.080;2023-07-28T13:23:04;99916.63;;;30.81;37.10
63654;BME280;49809;47.418;19.080;2023-07-28T13:26:42;99909.69;;;30.58;37.11
63654;BME280;49809;47.418;19.080;2023-07-28T13:30:24;99911.34;;;31.29;36.78
63654;BME280;49809;47.418;19.080;2023-07-28T13:34:05;99910.37;;;30.87;35.64
63654;BME280;49809;47.418;19.080;2023-07-28T13:37:44;99904.13;;;30.87;35.40
63654;BME280;49809;47.418;19.080;2023-07-28T13:41:27;99910.37;;;30.84;37.39
63654;BME280;49809;47.418;19.080;2023-07-28T13:45:11;99902.75;;;30.15;38.00
63654;BME280;49809;47.418;19.080;2023-07-28T13:52:54;99916.78;;;30.24;37.22
63654;BME280;49809;47.418;19.080;2023-07-28T14:00:12;99911.94;;;29.15;39.79
63654;BME280;49809;47.418;19.080;2023-07-28T14:03:53;99916.66;;;29.18;39.81
63654;BME280;49809;47.418;19.080;2023-07-28T14:07:26;99906.53;;;29.29;39.66
63654;BME280;49809;47.418;19.080;2023-07-28T14:11:04;99900.66;;;29.20;40.58
63654;BME280;49809;47.418;19.080;2023-07-28T14:14:43;99904.97;;;29.24;40.83
63654;BME280;49809;47.418;19.080;2023-07-28T14:22:00;99905.59;;;28.75;41.65
63654;BME280;49809;47.418;19.080;2023-07-28T14:25:36;99899.53;;;29.28;41.25
63654;BME280;49809;47.418;19.080;2023-07-28T14:29:13;99894.94;;;29.64;41.29
63654;BME280;49809;47.418;19.080;2023-07-28T14:33:02;99882.47;;;29.52;41.97
63654;BME280;49809;47.418;19.080;2023-07-28T14:36:36;99880.44;;;29.14;40.93
63654;BME280;49809;47.418;19.080;2023-07-28T14:40:11;99885.50;;;29.19;41.28
63654;BME280;49809;47.418;19.080;2023-07-28T14:43:52;99876.22;;;29.45;41.53
63654;BME280;49809;47.418;19.080;2023-07-28T14:47:14;99866.09;;;29.49;41.92
63654;BME280;49809;47.418;19.080;2023-07-28T14:54:37;99850.50;;;29.56;41.57
63654;BME280;49809;47.418;19.080;2023-07-28T14:58:09;99851.31;;;29.67;40.39
63654;BME280;49809;47.418;19.080;2023-07-28T15:01:43;99849.72;;;29.45;40.41
63654;BME280;49809;47.418;19.080;2023-07-28T15:05:21;99855.97;;;29.49;41.04
63654;BME280;49809;47.418;19.080;2023-07-28T15:08:39;99854.03;;;29.67;39.93
63654;BME280;49809;47.418;19.080;2023-07-28T15:12:27;99831.81;;;29.37;39.44
63654;BME280;49809;47.418;19.080;2023-07-28T15:16:14;99829.88;;;29.66;40.40
63654;BME280;49809;47.418;19.080;2023-07-28T15:23:27;99821.56;;;30.40;39.40
63654;BME280;49809;47.418;19.080;2023-07-28T15:27:06;99814.59;;;30.25;38.57
63654;BME280;49809;47.418;19.080;2023-07-28T15:31:05;99807.47;;;30.59;38.57
63654;BME280;49809;47.418;19.080;2023-07-28T15:38:20;99805.44;;;30.71;37.64
63654;BME280;49809;47.418;19.080;2023-07-28T15:42:10;99814.41;;;30.71;37.85
63654;BME280;49809;47.418;19.080;2023-07-28T15:49:43;99821.69;;;30.95;37.05
63654;BME280;49809;47.418;19.080;2023-07-28T16:05:31;99838.94;;;30.82;37.50
63654;BME280;49809;47.418;19.080;2023-07-28T16:13:49;99855.19;;;30.16;39.30
63654;BME280;49809;47.418;19.080;2023-07-28T16:17:36;99863.69;;;29.26;39.25
63654;BME280;49809;47.418;19.080;2023-07-28T16:21:40;99877.59;;;28.85;41.24
63654;BME280;49809;47.418;19.080;2023-07-28T18:22:23;99952.28;;;24.81;55.68
63654;BME280;49809;47.418;19.080;2023-07-28T18:26:27;99951.75;;;24.75;55.60
63654;BME280;49809;47.418;19.080;2023-07-28T18:30:11;99961.22;;;24.65;56.56
63654;BME280;49809;47.418;19.080;2023-07-28T18:33:56;99956.06;;;24.60;56.79
63654;BME280;49809;47.418;19.080;2023-07-28T18:37:41;99941.16;;;24.51;58.48
63654;BME280;49809;47.418;19.080;2023-07-28T18:41:49;99944.88;;;24.43;60.24
63654;BME280;49809;47.418;19.080;2023-07-28T19:07:47;99977.22;;;24.08;61.14
63654;BME280;49809;47.418;19.080;2023-07-28T19:15:15;99983.34;;;24.05;59.69
63654;BME280;49809;47.418;19.080;2023-07-28T19:19:27;99991.44;;;24.05;59.68
63654;BME280;49809;47.418;19.080;2023-07-28T19:23:08;99976.63;;;23.99;59.75
63654;BME280;49809;47.418;19.080;2023-07-28T19:26:41;99979.56;;;23.94;60.62
63654;BME280;49809;47.418;19.080;2023-07-28T19:31:00;99992.22;;;23.90;60.83
63654;BME280;49809;47.418;19.080;2023-07-28T19:34:31;99993.69;;;23.87;61.26
63654;BME280;49809;47.418;19.080;2023-07-28T19:41:48;99978.50;;;23.82;61.62
63654;BME280;49809;47.418;19.080;2023-07-28T19:45:42;99989.31;;;23.82;61.82
63654;BME280;49809;47.418;19.080;2023-07-28T19:49:50;99991.50;;;23.77;63.78
63654;BME280;49809;47.418;19.080;2023-07-28T19:56:50;99988.53;;;23.66;63.04
63654;BME280;49809;47.418;19.080;2023-07-28T20:01:11;99988.06;;;23.64;62.99
63654;BME280;49809;47.418;19.080;2023-07-28T20:04:56;99991.28;;;23.54;64.74
63654;BME280;49809;47.418;19.080;2023-07-28T20:12:46;99998.41;;;23.47;65.76
63654;BME280;49809;47.418;19.080;2023-07-28T20:16:31;99995.13;;;23.41;66.55
63654;BME280;49809;47.418;19.080;2023-07-28T20:20:15;100000.78;;;23.36;68.08
63654;BME280;49809;47.418;19.080;2023-07-28T20:23:50;100000.53;;;23.41;67.02
63654;BME280;49809;47.418;19.080;2023-07-28T20:27:13;99987.28;;;23.36;67.84
63654;BME280;49809;47.418;19.080;2023-07-28T20:34:36;100009.38;;;23.26;68.63
63654;BME280;49809;47.418;19.080;2023-07-28T20:38:31;100004.91;;;23.18;69.31
63654;BME280;49809;47.418;19.080;2023-07-28T20:42:12;100012.78;;;23.11;70.26
63654;BME280;49809;47.418;19.080;2023-07-28T20:45:58;100017.28;;;23.07;70.86
63654;BME280;49809;47.418;19.080;2023-07-28T20:49:35;100012.12;;;23.02;71.78
63654;BME280;49809;47.418;19.080;2023-07-28T20:53:19;100018.56;;;22.97;72.87
63654;BME280;49809;47.418;19.080;2023-07-28T20:56:59;100017.75;;;22.96;72.60
63654;BME280;49809;47.418;19.080;2023-07-28T21:00:25;100023.72;;;22.90;72.95
63654;BME280;49809;47.418;19.080;2023-07-28T21:07:39;100025.19;;;22.87;73.62
63654;BME280;49809;47.418;19.080;2023-07-28T21:11:15;100030.81;;;22.82;74.11
63654;BME280;49809;47.418;19.080;2023-07-28T21:14:50;100024.88;;;22.77;74.74
63654;BME280;49809;47.418;19.080;2023-07-28T21:22:07;100032.53;;;22.75;74.63
63654;BME280;49809;47.418;19.080;2023-07-28T21:29:49;100024.06;;;22.76;74.89
63654;BME280;49809;47.418;19.080;2023-07-28T21:33:07;100028.44;;;22.69;75.28
63654;BME280;49809;47.418;19.080;2023-07-28T21:36:44;100034.97;;;22.68;75.42
63654;BME280;49809;47.418;19.080;2023-07-28T21:40:22;100039.56;;;22.67;75.72
63654;BME280;49809;47.418;19.080;2023-07-28T21:47:36;100050.25;;;22.64;75.66
63654;BME280;49809;47.418;19.080;2023-07-28T21:51:06;100047.47;;;22.60;75.93
63654;BME280;49809;47.418;19.080;2023-07-28T21:54:33;100050.47;;;22.59;76.30
63654;BME280;49809;47.418;19.080;2023-07-28T21:58:10;100050.37;;;22.55;76.35
63654;BME280;49809;47.418;19.080;2023-07-28T22:01:50;100046.78;;;22.51;75.68
63654;BME280;49809;47.418;19.080;2023-07-28T22:05:19;100048.69;;;22.50;76.31
63654;BME280;49809;47.418;19.080;2023-07-28T22:08:56;100043.28;;;22.50;76.70
63654;BME280;49809;47.418;19.080;2023-07-28T22:12:16;100039.25;;;22.44;76.37
63654;BME280;49809;47.418;19.080;2023-07-28T22:15:43;100045.44;;;22.45;76.90
63654;BME280;49809;47.418;19.080;2023-07-28T22:19:18;100040.25;;;22.40;78.13
63654;BME280;49809;47.418;19.080;2023-07-28T22:22:44;100040.00;;;22.33;77.52
63654;BME280;49809;47.418;19.080;2023-07-28T22:26:15;100033.72;;;22.29;77.65
63654;BME280;49809;47.418;19.080;2023-07-28T22:29:50;100035.50;;;22.25;77.61
63654;BME280;49809;47.418;19.080;2023-07-28T22:33:19;100038.88;;;22.22;77.62
63654;BME280;49809;47.418;19.080;2023-07-28T22:36:59;100040.78;;;22.21;77.66
63654;BME280;49809;47.418;19.080;2023-07-28T22:40:43;100040.53;;;22.14;78.15
63654;BME280;49809;47.418;19.080;2023-07-28T22:44:17;100034.13;;;22.06;77.92
63654;BME280;49809;47.418;19.080;2023-07-28T22:47:51;100033.31;;;21.94;78.06
63654;BME280;49809;47.418;19.080;2023-07-28T22:51:26;100047.84;;;21.81;77.85
63654;BME280;49809;47.418;19.080;2023-07-28T22:55:01;100046.81;;;21.73;78.34
63654;BME280;49809;47.418;19.080;2023-07-28T22:58:36;100046.31;;;21.59;79.40
63654;BME280;49809;47.418;19.080;2023-07-28T23:02:15;100055.91;;;21.48;80.17
63654;BME280;49809;47.418;19.080;2023-07-28T23:05:51;100060.56;;;21.39;82.01
63654;BME280;49809;47.418;19.080;2023-07-28T23:09:25;100058.91;;;21.25;82.74
63654;BME280;49809;47.418;19.080;2023-07-28T23:12:59;100055.03;;;21.14;83.80
63654;BME280;49809;47.418;19.080;2023-07-28T23:16:36;100057.72;;;21.06;84.05
63654;BME280;49809;47.418;19.080;2023-07-28T23:20:12;100059.38;;;20.98;84.68
63654;BME280;49809;47.418;19.080;2023-07-28T23:23:46;100062.25;;;20.93;84.76
63654;BME280;49809;47.418;19.080;2023-07-28T23:27:22;100062.44;;;20.88;84.69
63654;BME280;49809;47.418;19.080;2023-07-28T23:31:16;100062.00;;;20.86;84.67
63654;BME280;49809;47.418;19.080;2023-07-28T23:34:55;100053.81;;;20.74;85.27
63654;BME280;49809;47.418;19.080;2023-07-28T23:38:31;100051.97;;;20.66;86.56
63654;BME280;49809;47.418;19.080;2023-07-28T23:42:07;100057.41;;;20.57;88.18
63654;BME280;49809;47.418;19.080;2023-07-28T23:49:37;100043.03;;;20.45;88.09
63654;BME280;49809;47.418;19.080;2023-07-28T23:53:10;100047.97;;;20.43;88.01
63654;BME280;49809;47.418;19.080;2023-07-28T23:56:50;100045.44;;;20.37;88.02
